createdAt,value
2023-03-10T09:58:40.664Z,11.97
2023-03-10T09:59:40.611Z,12.15
2023-03-10T12:00:12.714Z,17.18
2023-03-10T12:01:21.554Z,17.32
2023-03-10T12:02:10.682Z,17.06
2023-03-10T12:03:10.752Z,17.16
2023-03-10T12:04:10.726Z,17.48
2023-03-10T12:05:10.885Z,18.02
2023-03-10T12:06:10.679Z,17.77
2023-03-10T12:07:10.726Z,17.62
2023-03-10T12:08:10.808Z,17.38
2023-03-10T12:09:10.827Z,16.96
2023-03-10T12:10:10.810Z,16.57
2023-03-10T12:11:15.397Z,16.58
2023-03-10T12:12:10.737Z,16.51
2023-03-10T12:13:10.829Z,16.22
2023-03-10T12:14:10.776Z,16.03
2023-03-10T12:15:11.263Z,15.96
2023-03-10T12:16:10.965Z,15.93
2023-03-10T12:17:10.775Z,16.29
2023-03-10T12:18:10.772Z,16.29
2023-03-10T12:19:10.787Z,16.12
2023-03-10T12:20:10.750Z,15.74
2023-03-10T12:21:10.726Z,15.90
2023-03-10T12:22:10.762Z,16.26
2023-03-10T12:23:10.768Z,16.41
2023-03-10T12:24:10.807Z,16.75
2023-03-10T12:25:11.601Z,17.08
2023-03-10T12:26:12.891Z,17.20
2023-03-10T12:27:10.810Z,17.31
2023-03-10T12:28:10.984Z,17.60
2023-03-10T12:29:10.898Z,17.69
2023-03-10T12:30:15.037Z,17.47
2023-03-10T12:31:11.062Z,17.29
2023-03-10T12:32:10.981Z,16.96
2023-03-10T12:33:11.888Z,16.73
2023-03-10T12:34:10.922Z,16.66
2023-03-10T12:35:10.946Z,16.62
2023-03-10T12:36:10.955Z,16.40
2023-03-10T12:37:11.097Z,16.15
2023-03-10T12:38:11.106Z,16.11
2023-03-10T12:39:11.046Z,16.10
2023-03-10T12:40:11.568Z,16.09
2023-03-10T12:41:20.232Z,15.91
2023-03-10T12:42:10.967Z,15.89
2023-03-10T12:43:19.026Z,15.94
2023-03-10T12:44:16.338Z,15.93
2023-03-10T12:45:11.009Z,15.99
2023-03-10T12:46:11.099Z,15.97
2023-03-10T12:47:11.173Z,15.89
2023-03-10T12:48:20.273Z,15.76
2023-03-10T12:49:11.129Z,15.59
2023-03-10T12:50:21.311Z,15.39
2023-03-10T12:51:12.667Z,15.19
2023-03-10T12:52:20.625Z,14.99
2023-03-10T12:53:11.316Z,14.87
2023-03-10T12:54:11.192Z,14.79
2023-03-10T12:56:11.307Z,14.48
2023-03-10T12:57:11.467Z,14.38
2023-03-10T12:58:11.122Z,14.40
2023-03-10T12:59:11.080Z,14.29
2023-03-10T13:00:13.741Z,14.23
2023-03-10T13:01:13.749Z,14.21
2023-03-10T13:03:11.100Z,14.14
2023-03-10T13:04:13.105Z,14.11
2023-03-10T13:05:56.703Z,14.04
2023-03-10T13:07:49.585Z,14.02
2023-03-10T13:07:52.148Z,13.96
2023-03-10T13:09:00.179Z,13.91
2023-03-10T13:09:53.076Z,13.84
2023-03-10T13:11:03.246Z,13.67
2023-03-10T13:11:52.440Z,13.57
2023-03-10T13:12:52.331Z,13.56
2023-03-10T13:13:55.445Z,13.51
2023-03-10T13:14:52.245Z,13.52
2023-03-10T13:15:54.445Z,13.50
2023-03-10T13:16:55.536Z,13.51
2023-03-10T13:17:52.239Z,13.53
2023-03-10T13:21:15.885Z,13.67
2023-03-10T13:22:15.703Z,13.47
2023-03-10T13:23:09.597Z,13.39
2023-03-10T13:24:09.647Z,13.34
2023-03-10T13:25:09.879Z,13.30
2023-03-10T13:26:21.154Z,13.27
2023-03-10T13:27:18.306Z,13.22
2023-03-10T13:28:09.659Z,13.14
2023-03-10T13:29:09.843Z,13.07
2023-03-10T13:31:09.864Z,13.07
2023-03-10T13:32:14.904Z,13.04
2023-03-10T13:33:09.595Z,13.04
2023-03-10T13:34:09.633Z,13.02
2023-03-10T13:35:09.629Z,13.06
2023-03-10T13:36:09.738Z,13.08
2023-03-10T13:37:12.556Z,13.16
2023-03-10T13:38:13.240Z,13.12
2023-03-10T13:39:35.874Z,13.09
2023-03-10T13:40:12.718Z,13.13
2023-03-10T13:41:12.033Z,13.15
2023-03-10T13:42:09.725Z,13.20
2023-03-10T13:43:09.660Z,13.27
2023-03-10T13:44:17.971Z,13.37
2023-03-10T13:45:13.538Z,13.33
2023-03-10T13:46:10.030Z,13.41
2023-03-10T13:47:09.727Z,13.32
2023-03-10T13:48:09.756Z,13.33
2023-03-10T13:49:09.754Z,13.29
2023-03-10T13:50:10.212Z,13.29
2023-03-10T13:51:09.886Z,13.30
2023-03-10T13:52:09.796Z,13.27
2023-03-10T13:53:09.828Z,13.30
2023-03-10T13:54:09.792Z,13.32
2023-03-10T13:55:11.836Z,13.38
2023-03-10T13:56:09.808Z,13.37
2023-03-10T13:57:09.748Z,13.41
2023-03-10T13:58:09.924Z,13.41
2023-03-10T13:59:09.883Z,13.44
2023-03-10T14:00:11.713Z,13.45
2023-03-10T14:01:12.642Z,13.49
2023-03-10T14:02:14.088Z,13.60
2023-03-10T14:03:13.437Z,13.68
2023-03-10T14:04:19.877Z,13.80
2023-03-10T14:05:11.895Z,13.80
2023-03-10T14:06:13.649Z,13.85
2023-03-10T14:07:09.767Z,13.82
2023-03-10T14:08:10.622Z,13.82
2023-03-10T14:09:09.809Z,13.81
2023-03-10T14:10:09.899Z,13.80
2023-03-10T14:11:09.853Z,13.80
2023-03-10T14:12:09.782Z,13.78
2023-03-10T14:13:09.857Z,13.72
2023-03-10T14:14:09.905Z,13.68
2023-03-10T14:15:09.896Z,13.67
2023-03-10T14:16:09.934Z,13.61
2023-03-10T14:17:09.917Z,13.61
2023-03-10T14:18:09.860Z,13.66
2023-03-10T14:19:09.818Z,13.61
2023-03-10T14:20:09.952Z,13.62
2023-03-10T14:21:09.856Z,13.64
2023-03-10T14:22:09.904Z,13.59
2023-03-10T14:23:09.926Z,13.54
2023-03-10T14:24:09.963Z,13.48
2023-03-10T14:25:09.923Z,13.55
2023-03-10T14:26:09.874Z,13.60
2023-03-10T14:27:09.858Z,13.54
2023-03-10T14:28:10.008Z,13.58
2023-03-10T14:29:09.873Z,13.52
2023-03-10T14:30:09.928Z,13.48
2023-03-10T14:31:09.964Z,13.44
2023-03-10T14:32:10.080Z,13.40
2023-03-10T14:33:09.902Z,13.37
2023-03-10T14:34:09.887Z,13.38
2023-03-10T14:35:09.923Z,13.37
2023-03-10T14:36:09.949Z,13.40
2023-03-10T14:37:09.953Z,13.36
2023-03-10T14:38:09.938Z,13.34
2023-03-10T14:39:09.950Z,13.33
2023-03-10T14:40:09.950Z,13.28
2023-03-10T14:41:09.928Z,13.28
2023-03-10T14:42:09.952Z,13.25
2023-03-10T14:43:09.965Z,13.18
2023-03-10T14:44:10.042Z,13.19
2023-03-10T14:45:10.379Z,13.18
2023-03-10T14:46:10.217Z,13.15
2023-03-10T14:47:10.192Z,13.17
2023-03-10T14:48:10.059Z,13.18
2023-03-10T14:49:09.964Z,13.18
2023-03-10T14:50:10.406Z,13.19
2023-03-10T14:51:09.953Z,13.25
2023-03-10T14:52:09.966Z,13.19
2023-03-10T14:53:11.956Z,13.16
2023-03-10T14:54:09.889Z,13.10
2023-03-10T14:55:10.001Z,13.03
2023-03-10T14:56:10.014Z,13.07
2023-03-10T14:57:09.971Z,13.05
2023-03-10T14:58:09.999Z,13.00
2023-03-10T14:59:09.973Z,12.95
2023-03-10T15:00:10.009Z,12.97
2023-03-10T15:01:09.993Z,13.04
2023-03-10T15:02:09.992Z,13.02
2023-03-10T15:03:10.054Z,13.01
2023-03-10T15:04:10.025Z,12.96
2023-03-10T15:05:10.315Z,12.89
2023-03-10T15:06:10.137Z,12.89
2023-03-10T15:07:10.137Z,12.84
2023-03-10T15:08:10.009Z,12.86
2023-03-10T15:09:10.227Z,12.74
2023-03-10T15:10:11.697Z,12.68
2023-03-10T15:11:10.210Z,12.73
2023-03-10T15:12:10.266Z,12.72
2023-03-10T15:13:10.268Z,12.69
2023-03-10T15:14:11.378Z,12.73
2023-03-10T15:15:10.528Z,12.72
2023-03-10T15:16:10.347Z,12.75
2023-03-10T15:17:10.410Z,12.69
2023-03-10T15:18:10.441Z,12.69
2023-03-10T15:19:10.479Z,12.74
2023-03-10T15:20:10.480Z,12.69
2023-03-10T15:21:10.440Z,12.65
2023-03-10T15:22:10.452Z,12.64
2023-03-10T15:23:11.911Z,12.61
2023-03-10T15:24:10.552Z,12.61
2023-03-10T15:25:10.623Z,12.62
2023-03-10T15:26:10.565Z,12.66
2023-03-10T15:27:10.536Z,12.64
2023-03-10T15:28:10.617Z,12.57
2023-03-10T15:29:10.617Z,12.62
2023-03-10T15:30:10.678Z,12.54
2023-03-10T15:31:10.624Z,12.54
2023-03-10T15:32:10.703Z,12.49
2023-03-10T15:33:10.595Z,12.49
2023-03-10T15:34:10.518Z,12.57
2023-03-10T15:35:10.714Z,12.65
2023-03-10T15:36:10.763Z,12.63
2023-03-10T15:37:10.608Z,12.69
2023-03-10T15:38:10.497Z,12.56
2023-03-10T15:39:14.234Z,12.57
2023-03-10T15:40:10.662Z,12.54
2023-03-10T15:41:10.541Z,12.54
2023-03-10T15:42:10.575Z,12.50
2023-03-10T15:43:10.623Z,12.47
2023-03-10T15:44:10.618Z,12.45
2023-03-10T15:45:11.178Z,12.42
2023-03-10T15:46:10.713Z,12.31
2023-03-10T15:47:10.672Z,12.19
2023-03-10T15:48:10.635Z,12.14
2023-03-10T15:49:10.696Z,12.06
2023-03-10T15:50:10.603Z,12.02
2023-03-10T15:51:10.687Z,12.00
2023-03-10T15:52:10.583Z,11.97
2023-03-10T15:53:10.732Z,11.91
2023-03-10T15:54:19.673Z,11.87
2023-03-10T15:55:10.787Z,11.80
2023-03-10T15:56:13.620Z,11.69
2023-03-10T15:57:10.858Z,11.59
2023-03-10T15:58:11.781Z,11.58
2023-03-10T15:59:10.832Z,11.50
2023-03-10T16:00:13.650Z,11.50
2023-03-10T16:01:10.581Z,11.44
